createdAt,value
2022-11-16T00:02:14.425Z,13.35
2022-11-16T00:04:41.456Z,9.98
2022-11-16T00:07:08.274Z,11.43
2022-11-16T00:09:35.081Z,11.77
2022-11-16T00:12:04.772Z,18.08
2022-11-16T00:16:59.943Z,11.27
2022-11-16T00:19:27.440Z,14.48
2022-11-16T00:21:54.427Z,13.18
2022-11-16T00:24:22.651Z,17.70
2022-11-16T00:26:50.039Z,18.40
2022-11-16T00:29:19.547Z,18.95
2022-11-16T00:31:46.925Z,16.27
2022-11-16T00:34:14.065Z,19.17
2022-11-16T00:36:40.774Z,25.63
2022-11-16T00:39:07.462Z,14.63
2022-11-16T00:41:34.091Z,18.38
2022-11-16T00:44:00.672Z,18.90
2022-11-16T00:46:27.430Z,15.23
2022-11-16T00:48:54.303Z,22.05
2022-11-16T00:51:20.907Z,13.68
2022-11-16T00:53:47.675Z,13.55
2022-11-16T00:56:14.383Z,20.67
2022-11-16T00:58:41.402Z,21.80
2022-11-16T01:01:09.892Z,12.77
2022-11-16T01:03:37.241Z,14.77
2022-11-16T01:06:12.733Z,12.35
2022-11-16T01:08:40.412Z,13.55
2022-11-16T01:11:26.585Z,18.05
2022-11-16T01:13:53.746Z,21.88
2022-11-16T01:16:22.619Z,19.75
2022-11-16T01:18:51.007Z,19.60
2022-11-16T01:21:18.006Z,13.50
2022-11-16T01:23:44.908Z,18.35
2022-11-16T01:26:11.560Z,19.48
2022-11-16T01:28:38.177Z,21.95
2022-11-16T01:31:04.860Z,19.48
2022-11-16T01:33:31.639Z,15.60
2022-11-16T01:35:58.259Z,18.45
2022-11-16T01:38:29.804Z,20.02
2022-11-16T01:40:57.036Z,21.77
2022-11-16T01:43:25.780Z,18.80
2022-11-16T01:45:52.484Z,19.08
2022-11-16T01:48:29.180Z,21.20
2022-11-16T01:50:57.804Z,20.58
2022-11-16T01:53:25.094Z,21.05
2022-11-16T01:55:52.448Z,20.02
2022-11-16T01:58:23.088Z,21.00
2022-11-16T02:00:49.914Z,24.92
2022-11-16T02:03:21.200Z,21.70
2022-11-16T02:06:15.910Z,24.15
2022-11-16T02:09:20.440Z,26.27
2022-11-16T02:12:15.954Z,26.63
2022-11-16T02:15:12.804Z,27.27
2022-11-16T02:18:02.202Z,29.92
2022-11-16T02:20:47.356Z,25.38
2022-11-16T02:23:51.210Z,27.40
2022-11-16T02:27:02.642Z,30.50
2022-11-16T02:29:50.270Z,32.38
2022-11-16T02:32:29.752Z,29.13
2022-11-16T02:35:32.104Z,32.83
2022-11-16T02:38:09.420Z,27.45
2022-11-16T02:40:39.908Z,31.77
2022-11-16T02:43:09.664Z,32.33
2022-11-16T02:48:24.100Z,34.53
2022-11-16T02:50:53.004Z,28.70
2022-11-16T02:53:24.315Z,33.47
2022-11-16T02:55:51.381Z,30.27
2022-11-16T02:58:24.563Z,30.42
2022-11-16T03:01:12.551Z,33.70
2022-11-16T03:03:58.797Z,33.03
2022-11-16T03:06:30.168Z,40.33
2022-11-16T03:09:24.254Z,40.63
2022-11-16T03:12:00.166Z,37.95
2022-11-16T03:14:44.073Z,37.03
2022-11-16T03:17:18.683Z,35.80
2022-11-16T03:20:06.498Z,44.92
2022-11-16T03:22:41.530Z,38.45
2022-11-16T03:25:11.359Z,37.67
2022-11-16T03:28:03.066Z,56.17
2022-11-16T03:30:33.166Z,31.65
2022-11-16T03:33:27.396Z,32.08
2022-11-16T03:36:15.564Z,33.80
2022-11-16T03:38:44.125Z,33.08
2022-11-16T03:41:12.490Z,30.88
2022-11-16T03:43:42.882Z,36.70
2022-11-16T03:46:10.051Z,32.50
2022-11-16T03:48:38.649Z,31.60
2022-11-16T03:51:06.073Z,43.60
2022-11-16T03:53:32.741Z,40.47
2022-11-16T03:55:59.568Z,32.42
2022-11-16T03:58:26.213Z,47.83
2022-11-16T04:00:53.367Z,33.47
2022-11-16T04:03:21.105Z,43.50
2022-11-16T04:06:07.338Z,48.45
2022-11-16T04:08:52.826Z,49.58
2022-11-16T04:11:40.224Z,37.70
2022-11-16T04:14:32.471Z,57.03
2022-11-16T04:17:17.867Z,60.65
2022-11-16T04:20:03.143Z,56.90
2022-11-16T04:22:55.752Z,52.10
2022-11-16T04:25:26.883Z,55.72
2022-11-16T04:28:13.152Z,60.45
2022-11-16T04:31:00.468Z,52.67
2022-11-16T04:33:47.197Z,63.05
2022-11-16T04:36:32.614Z,62.53
2022-11-16T04:38:59.238Z,78.47
2022-11-16T04:41:44.346Z,109.65
2022-11-16T04:44:11.073Z,58.47
2022-11-16T04:46:56.861Z,133.10
2022-11-16T04:49:23.567Z,83.82
2022-11-16T04:51:50.180Z,115.28
2022-11-16T04:54:16.882Z,186.88
2022-11-16T04:56:43.488Z,73.68
2022-11-16T04:59:10.278Z,138.75
2022-11-16T05:01:55.639Z,190.95
2022-11-16T05:04:22.392Z,201.88
2022-11-16T05:06:49.051Z,88.13
2022-11-16T05:09:15.769Z,105.72
2022-11-16T05:11:42.508Z,148.80
2022-11-16T05:14:10.568Z,78.00
2022-11-16T05:16:37.375Z,143.68
2022-11-16T05:19:23.123Z,76.30
2022-11-16T05:21:49.740Z,294.13
2022-11-16T05:24:34.825Z,262.50
2022-11-16T05:27:07.162Z,156.27
2022-11-16T05:29:34.745Z,77.65
2022-11-16T05:32:02.195Z,62.20
2022-11-16T05:34:29.120Z,79.70
2022-11-16T05:36:56.723Z,73.00
2022-11-16T05:39:23.852Z,60.47
2022-11-16T05:41:50.960Z,61.75
2022-11-16T05:44:17.754Z,76.38
2022-11-16T05:46:44.998Z,75.90
2022-11-16T05:49:13.164Z,54.90
2022-11-16T05:51:41.561Z,76.05
2022-11-16T05:54:08.815Z,63.13
2022-11-16T05:56:35.738Z,55.33
2022-11-16T05:59:02.831Z,51.25
2022-11-16T06:01:29.498Z,59.03
2022-11-16T06:03:59.145Z,71.35
2022-11-16T06:06:25.898Z,51.88
2022-11-16T06:08:52.611Z,63.92
2022-11-16T06:11:20.725Z,73.60
2022-11-16T06:13:47.624Z,75.40
2022-11-16T06:16:14.395Z,70.88
2022-11-16T06:18:43.358Z,91.90
2022-11-16T06:21:11.513Z,72.28
2022-11-16T06:23:39.536Z,98.32
2022-11-16T06:26:06.812Z,87.30
2022-11-16T06:28:34.408Z,65.38
2022-11-16T06:31:01.945Z,77.18
2022-11-16T06:33:33.388Z,61.25
2022-11-16T06:36:00.727Z,68.38
2022-11-16T06:38:27.769Z,114.18
2022-11-16T06:40:56.941Z,100.32
2022-11-16T06:43:24.624Z,418.60
2022-11-16T06:45:56.013Z,334.90
2022-11-16T06:48:23.141Z,562.38
2022-11-16T06:50:51.823Z,207.73
2022-11-16T06:53:19.167Z,224.13
2022-11-16T06:55:45.758Z,369.40
2022-11-16T06:58:12.647Z,216.43
2022-11-16T07:00:39.337Z,303.48
2022-11-16T07:03:06.117Z,284.08
2022-11-16T07:05:33.182Z,275.38
2022-11-16T07:07:59.886Z,202.20
2022-11-16T07:10:26.664Z,368.38
2022-11-16T07:12:53.329Z,440.13
2022-11-16T07:15:20.447Z,349.08
2022-11-16T07:17:47.194Z,133.65
2022-11-16T07:20:14.038Z,168.38
2022-11-16T07:22:40.619Z,336.77
2022-11-16T07:25:07.987Z,151.85
2022-11-16T07:27:34.777Z,191.82
2022-11-16T07:30:02.257Z,134.05
2022-11-16T07:32:30.968Z,109.07
2022-11-16T07:34:59.433Z,127.40
2022-11-16T07:37:26.544Z,111.13
2022-11-16T07:39:53.223Z,127.90
2022-11-16T07:42:19.848Z,148.70
2022-11-16T07:44:46.492Z,116.97
2022-11-16T07:47:13.184Z,103.20
2022-11-16T07:49:40.044Z,95.60
2022-11-16T07:52:10.136Z,70.78
2022-11-16T07:54:37.204Z,68.43
2022-11-16T07:57:03.868Z,57.67
2022-11-16T07:59:30.582Z,50.20
2022-11-16T08:01:59.030Z,44.13
2022-11-16T08:04:25.870Z,36.78
2022-11-16T08:06:52.566Z,29.48
2022-11-16T08:09:19.403Z,29.30
2022-11-16T08:11:47.054Z,21.38
2022-11-16T08:14:14.041Z,17.38
2022-11-16T08:16:40.668Z,16.42
2022-11-16T08:19:07.393Z,18.75
2022-11-16T08:21:34.029Z,14.82
2022-11-16T08:24:00.759Z,15.68
2022-11-16T08:26:27.740Z,16.55
2022-11-16T08:28:56.401Z,17.90
2022-11-16T08:31:25.902Z,13.93
2022-11-16T08:33:52.652Z,12.35
2022-11-16T08:36:19.865Z,22.23
2022-11-16T08:38:48.290Z,14.75
2022-11-16T08:41:16.050Z,12.13
2022-11-16T08:43:43.495Z,13.65
2022-11-16T08:46:11.217Z,14.65
2022-11-16T08:48:38.710Z,13.73
2022-11-16T08:51:19.585Z,9.55
2022-11-16T08:53:48.337Z,11.45
2022-11-16T08:56:16.245Z,8.30
2022-11-16T08:58:44.368Z,9.38
2022-11-16T09:01:13.908Z,6.30
2022-11-16T09:03:41.365Z,7.82
2022-11-16T09:11:54.300Z,5.95
2022-11-16T09:14:21.863Z,11.77
2022-11-16T09:16:48.530Z,4.32
2022-11-16T09:19:15.122Z,9.15
2022-11-16T09:21:41.869Z,6.55
2022-11-16T09:24:09.379Z,4.20
2022-11-16T09:26:35.998Z,5.93
2022-11-16T09:29:04.342Z,8.68
2022-11-16T09:31:34.723Z,6.25
2022-11-16T09:34:02.747Z,5.00
2022-11-16T09:36:30.254Z,6.68
2022-11-16T09:42:16.843Z,5.22
2022-11-16T09:45:04.671Z,2.92
2022-11-16T09:47:54.290Z,5.88
2022-11-16T09:50:45.343Z,5.68
2022-11-16T09:53:27.304Z,5.80
2022-11-16T09:55:58.438Z,9.82
2022-11-16T09:59:04.030Z,6.72
2022-11-16T10:01:46.596Z,4.93
2022-11-16T10:04:22.471Z,7.13
2022-11-16T10:06:51.385Z,5.05
2022-11-16T10:09:18.473Z,6.97
2022-11-16T10:11:57.211Z,10.15
2022-11-16T10:14:29.726Z,7.63
2022-11-16T10:17:06.695Z,9.27
2022-11-16T10:19:52.873Z,5.13
2022-11-16T10:22:26.999Z,6.00
2022-11-16T10:24:58.304Z,12.30
2022-11-16T10:27:28.015Z,6.68
2022-11-16T10:32:44.039Z,11.80
2022-11-16T10:35:10.655Z,10.48
2022-11-16T10:37:44.066Z,11.43
2022-11-16T10:40:21.646Z,7.47
2022-11-16T10:43:01.038Z,6.13
2022-11-16T10:45:33.688Z,10.02
2022-11-16T10:48:10.470Z,11.10
2022-11-16T10:50:45.239Z,9.07
2022-11-16T10:53:16.052Z,5.20
2022-11-16T10:55:42.781Z,9.60
2022-11-16T10:58:09.422Z,13.27
2022-11-16T11:00:51.716Z,8.38
2022-11-16T11:03:32.072Z,10.73
2022-11-16T11:05:59.121Z,6.88
2022-11-16T11:08:31.020Z,6.47
2022-11-16T11:11:01.836Z,7.82
2022-11-16T11:13:28.776Z,11.13
2022-11-16T11:16:17.639Z,12.73
2022-11-16T11:18:45.711Z,11.55
2022-11-16T11:21:22.801Z,16.13
2022-11-16T11:23:52.408Z,10.40
2022-11-16T11:26:35.833Z,9.48
2022-11-16T11:29:30.619Z,11.93
2022-11-16T11:32:23.801Z,12.25
2022-11-16T11:34:54.126Z,8.25
2022-11-16T11:37:28.593Z,6.85
2022-11-16T11:40:27.325Z,12.18
2022-11-16T11:42:56.798Z,13.83
2022-11-16T11:45:28.940Z,11.63
2022-11-16T11:47:59.794Z,8.45
2022-11-16T11:50:41.955Z,11.55
2022-11-16T11:53:21.478Z,16.77
2022-11-16T11:55:54.910Z,16.98
2022-11-16T11:58:23.394Z,16.17
2022-11-16T12:01:03.982Z,12.60
2022-11-16T12:04:04.026Z,13.05
2022-11-16T12:06:44.189Z,15.48
2022-11-16T12:09:29.837Z,17.13
2022-11-16T12:12:19.468Z,10.63
2022-11-16T12:17:29.456Z,13.60
2022-11-16T12:20:03.687Z,9.07
2022-11-16T12:22:38.163Z,11.05
2022-11-16T12:25:28.861Z,15.60
2022-11-16T12:28:13.877Z,12.95
2022-11-16T12:31:22.264Z,15.30
2022-11-16T12:33:51.827Z,11.30
2022-11-16T12:36:52.504Z,12.55
2022-11-16T12:39:19.261Z,15.50
2022-11-16T12:41:54.843Z,18.60
2022-11-16T12:44:50.877Z,9.35
2022-11-16T12:47:58.527Z,10.82
2022-11-16T12:50:49.623Z,13.15
2022-11-16T12:53:37.934Z,15.60
2022-11-16T12:56:15.684Z,12.50
2022-11-16T12:59:08.620Z,14.65
2022-11-16T13:02:02.816Z,15.50
2022-11-16T13:04:35.900Z,12.18
2022-11-16T13:07:12.549Z,14.68
2022-11-16T13:09:47.356Z,13.00
2022-11-16T13:12:18.053Z,10.48
2022-11-16T13:14:47.460Z,13.35
2022-11-16T13:17:32.820Z,16.52
2022-11-16T13:20:21.871Z,12.23
2022-11-16T13:23:15.870Z,16.35
2022-11-16T13:25:54.977Z,9.57
2022-11-16T13:28:45.013Z,17.23
2022-11-16T13:31:19.768Z,15.65
2022-11-16T13:33:51.247Z,14.57
2022-11-16T13:36:43.273Z,12.98
2022-11-16T13:39:17.095Z,8.77
2022-11-16T13:42:11.716Z,14.07
2022-11-16T13:44:38.803Z,16.13
2022-11-16T13:47:27.426Z,9.23
2022-11-16T13:49:57.954Z,14.77
2022-11-16T13:55:46.534Z,13.13
2022-11-16T13:58:21.555Z,11.35
2022-11-16T14:00:59.408Z,12.60
2022-11-16T14:03:39.935Z,14.57
2022-11-16T14:06:29.624Z,12.80
2022-11-16T14:11:32.438Z,12.85
2022-11-16T14:14:01.590Z,14.82
2022-11-16T14:16:29.146Z,6.18
2022-11-16T14:19:01.104Z,10.77
2022-11-16T14:21:57.871Z,13.25
2022-11-16T14:24:40.898Z,14.32
2022-11-16T14:27:29.253Z,14.82
2022-11-16T14:32:39.617Z,13.55
2022-11-16T14:35:36.691Z,12.55
2022-11-16T14:38:17.815Z,14.00
2022-11-16T14:40:56.200Z,10.52
2022-11-16T14:43:31.242Z,9.70
2022-11-16T14:46:05.925Z,17.17
2022-11-16T14:48:33.191Z,17.48
2022-11-16T14:51:09.967Z,11.98
2022-11-16T14:53:41.514Z,12.45
2022-11-16T14:56:11.437Z,16.58
2022-11-16T14:58:38.919Z,22.20
2022-11-16T15:01:12.604Z,13.45
2022-11-16T15:03:53.265Z,12.27
2022-11-16T15:06:20.887Z,13.13
2022-11-16T15:08:51.985Z,10.20
2022-11-16T15:11:52.079Z,20.13
2022-11-16T15:14:26.618Z,18.88
2022-11-16T15:16:56.145Z,14.88
2022-11-16T15:19:23.801Z,12.70
2022-11-16T15:21:55.670Z,20.10
2022-11-16T15:24:33.960Z,18.70
2022-11-16T15:27:06.514Z,16.48
2022-11-16T15:29:33.194Z,14.23
2022-11-16T15:31:59.888Z,15.63
2022-11-16T15:34:26.642Z,15.13
2022-11-16T15:36:53.449Z,11.65
2022-11-16T15:39:22.971Z,14.23
2022-11-16T15:41:51.253Z,9.70
2022-11-16T15:44:21.242Z,19.30
2022-11-16T15:46:54.436Z,17.55
2022-11-16T15:49:31.833Z,16.10
2022-11-16T15:51:59.828Z,20.48
2022-11-16T15:54:53.605Z,11.98
2022-11-16T15:57:21.904Z,10.02
2022-11-16T15:59:52.105Z,17.27
2022-11-16T16:02:21.099Z,12.05
2022-11-16T16:04:47.854Z,11.40
2022-11-16T16:07:35.857Z,8.82
2022-11-16T16:10:20.732Z,16.90
2022-11-16T16:12:51.742Z,10.38
2022-11-16T16:15:31.339Z,17.75
2022-11-16T16:17:59.059Z,20.63
2022-11-16T16:23:25.533Z,21.85
2022-11-16T16:25:52.108Z,14.57
2022-11-16T16:28:18.721Z,18.13
2022-11-16T16:30:45.340Z,17.88
2022-11-16T16:33:22.760Z,17.05
2022-11-16T16:35:52.353Z,16.73
2022-11-16T16:38:18.915Z,12.02
2022-11-16T16:40:45.639Z,12.10
2022-11-16T16:43:12.357Z,10.85
2022-11-16T16:45:41.874Z,13.27
2022-11-16T16:48:12.661Z,13.18
2022-11-16T16:50:39.735Z,13.38
2022-11-16T16:53:06.328Z,12.55
2022-11-16T16:55:37.527Z,16.67
2022-11-16T16:58:04.813Z,13.38
2022-11-16T17:00:32.156Z,15.27
2022-11-16T17:02:58.827Z,15.27
2022-11-16T17:05:26.379Z,10.10
2022-11-16T17:07:56.216Z,9.38
2022-11-16T17:10:23.317Z,9.15
2022-11-16T17:12:53.739Z,16.38
2022-11-16T17:15:20.425Z,6.13
2022-11-16T17:17:47.349Z,13.38
2022-11-16T17:20:14.610Z,9.90
2022-11-16T17:22:41.962Z,9.23
2022-11-16T17:25:09.378Z,17.73
2022-11-16T17:27:36.237Z,16.67
2022-11-16T17:30:03.292Z,17.95
2022-11-16T17:32:30.308Z,20.83
2022-11-16T17:34:56.960Z,20.02
2022-11-16T17:37:23.542Z,8.50
2022-11-16T17:39:50.236Z,21.05
2022-11-16T17:42:16.858Z,18.77
2022-11-16T17:44:43.502Z,18.25
2022-11-16T17:47:10.111Z,14.18
2022-11-16T17:49:36.669Z,19.55
2022-11-16T17:52:04.817Z,14.10
2022-11-16T17:54:31.806Z,13.10
2022-11-16T17:56:58.426Z,14.45
2022-11-16T17:59:29.151Z,15.95
2022-11-16T18:01:57.548Z,13.65
2022-11-16T18:04:24.519Z,13.77
2022-11-16T18:06:51.248Z,14.02
2022-11-16T18:09:18.761Z,14.75
2022-11-16T18:11:45.546Z,12.68
2022-11-16T18:14:12.181Z,13.98
2022-11-16T18:16:42.219Z,14.70
2022-11-16T18:19:09.876Z,13.38
2022-11-16T18:21:41.405Z,13.98
2022-11-16T18:24:09.274Z,17.38
2022-11-16T18:26:36.436Z,16.17
2022-11-16T18:29:03.279Z,18.08
2022-11-16T18:31:32.774Z,23.77
2022-11-16T18:34:00.722Z,19.55
2022-11-16T18:36:27.387Z,14.50
2022-11-16T18:38:54.108Z,16.13
2022-11-16T18:41:23.729Z,21.20
2022-11-16T18:43:51.902Z,28.92
2022-11-16T18:46:30.183Z,18.92
2022-11-16T18:48:57.391Z,13.02
2022-11-16T18:51:26.150Z,25.73
2022-11-16T18:53:52.834Z,14.47
2022-11-16T18:56:19.918Z,22.42
2022-11-16T18:58:51.499Z,22.35
2022-11-16T19:01:21.870Z,20.20
2022-11-16T19:03:48.924Z,24.30
2022-11-16T19:06:17.520Z,25.20
2022-11-16T19:08:49.017Z,20.02
2022-11-16T19:11:20.541Z,12.05
2022-11-16T19:14:00.579Z,13.05
2022-11-16T19:16:27.367Z,17.15
2022-11-16T19:18:53.974Z,16.35
2022-11-16T19:21:21.941Z,12.40
2022-11-16T19:23:51.360Z,20.35
2022-11-16T19:26:19.440Z,30.45
2022-11-16T19:28:48.251Z,17.65
2022-11-16T19:31:23.594Z,19.73
2022-11-16T19:33:57.159Z,28.92
2022-11-16T19:36:24.823Z,24.60
2022-11-16T19:38:51.764Z,14.50
2022-11-16T19:41:21.405Z,19.40
2022-11-16T19:43:52.737Z,18.60
2022-11-16T19:46:21.568Z,16.58
2022-11-16T19:48:49.380Z,21.40
2022-11-16T19:51:27.888Z,13.82
2022-11-16T19:53:55.700Z,17.25
2022-11-16T19:56:23.966Z,24.77
2022-11-16T19:58:51.227Z,15.40
2022-11-16T20:01:27.612Z,15.30
2022-11-16T20:03:56.778Z,22.63
2022-11-16T20:06:29.251Z,20.00
2022-11-16T20:09:02.176Z,16.90
2022-11-16T20:11:31.128Z,15.98
2022-11-16T20:13:58.738Z,12.57
2022-11-16T20:16:28.025Z,15.73
2022-11-16T20:18:55.126Z,14.90
2022-11-16T20:21:23.750Z,14.88
2022-11-16T20:23:51.732Z,15.93
2022-11-16T20:26:19.972Z,14.52
2022-11-16T20:28:47.729Z,19.15
2022-11-16T20:31:16.599Z,18.33
2022-11-16T20:33:56.767Z,16.33
2022-11-16T20:36:25.077Z,18.05
2022-11-16T20:38:52.219Z,20.63
2022-11-16T20:41:23.700Z,19.38
2022-11-16T20:43:52.238Z,17.52
2022-11-16T20:46:20.351Z,22.55
2022-11-16T20:48:47.201Z,19.05
2022-11-16T20:51:16.880Z,15.13
2022-11-16T20:56:11.477Z,21.05
2022-11-16T20:58:38.699Z,16.77
2022-11-16T21:01:12.079Z,15.00
2022-11-16T21:03:39.403Z,21.15
2022-11-16T21:06:09.295Z,19.35
2022-11-16T21:08:36.890Z,21.92
2022-11-16T21:11:10.777Z,18.73
2022-11-16T21:13:56.147Z,15.93
2022-11-16T21:16:23.182Z,13.38
2022-11-16T21:18:49.775Z,18.33
2022-11-16T21:21:16.660Z,23.92
2022-11-16T21:23:47.180Z,12.88
2022-11-16T21:26:15.367Z,18.92
2022-11-16T21:28:45.211Z,19.45
2022-11-16T21:31:14.343Z,16.92
2022-11-16T21:33:41.147Z,18.88
2022-11-16T21:36:11.965Z,16.45
2022-11-16T21:38:39.149Z,14.40
2022-11-16T21:41:06.776Z,17.10
2022-11-16T21:43:36.325Z,19.52
2022-11-16T21:48:35.376Z,21.58
2022-11-16T21:51:07.249Z,22.08
2022-11-16T21:53:34.504Z,16.80
2022-11-16T21:56:02.321Z,17.05
2022-11-16T21:58:29.038Z,17.02
2022-11-16T22:01:00.224Z,25.60
2022-11-16T22:03:29.352Z,16.70
2022-11-16T22:06:16.585Z,19.58
2022-11-16T22:08:43.798Z,22.38
2022-11-16T22:11:11.293Z,36.72
2022-11-16T22:13:38.419Z,20.65
2022-11-16T22:16:12.769Z,18.80
2022-11-16T22:18:39.874Z,24.42
2022-11-16T22:21:07.180Z,19.02
2022-11-16T22:23:34.793Z,19.45
2022-11-16T22:26:02.294Z,16.88
2022-11-16T22:28:29.184Z,13.85
2022-11-16T22:31:02.778Z,15.52
2022-11-16T22:33:29.829Z,17.85
2022-11-16T22:35:56.867Z,17.55
2022-11-16T22:38:23.548Z,15.32
2022-11-16T22:40:51.636Z,17.27
2022-11-16T22:43:23.585Z,10.38
2022-11-16T22:45:50.369Z,11.70
2022-11-16T22:48:16.961Z,18.23
2022-11-16T22:50:43.738Z,15.93
2022-11-16T22:53:10.601Z,14.45
2022-11-16T22:55:38.623Z,16.27
2022-11-16T22:58:05.523Z,26.02
2022-11-16T23:00:39.013Z,10.25
2022-11-16T23:03:08.698Z,17.00
2022-11-16T23:05:35.433Z,16.25
2022-11-16T23:08:02.053Z,12.48
2022-11-16T23:10:28.996Z,19.40
2022-11-16T23:13:14.483Z,13.25
2022-11-16T23:15:49.957Z,9.23
2022-11-16T23:18:17.641Z,16.30
2022-11-16T23:21:03.026Z,15.55
2022-11-16T23:23:48.291Z,13.27
2022-11-16T23:26:41.220Z,13.00
2022-11-16T23:29:09.888Z,16.02
2022-11-16T23:31:37.850Z,16.02
2022-11-16T23:34:05.201Z,13.15
2022-11-16T23:36:31.959Z,18.35
2022-11-16T23:38:58.644Z,18.20
2022-11-16T23:41:43.809Z,20.48
2022-11-16T23:44:10.504Z,13.98
2022-11-16T23:46:37.104Z,13.13
2022-11-16T23:49:03.814Z,11.27
2022-11-16T23:51:30.477Z,16.65
2022-11-16T23:53:57.146Z,15.70
2022-11-16T23:56:24.005Z,10.70
2022-11-16T23:58:50.641Z,10.05
